Besuchen Sie unsere anderen Wetter Stationen:

Template documentation
and downloads

And another site



METAR-Meldungen aus der Umgebung

   
EBAW - Antwerp
Aktualisierung: 17-08-2018 05:20
Klar  
Klar  
   Wind: Norden 1.9 km/h
Wind: Norden 1.9 km/h
Temperatur: 16°C
Taupunkt: 14°C
Luftfeuchte: 88%
Luftdruck: 1016 hPa
Sichtbarkeit: More than 10 km
Bewölkung: Klar
EBAW 170320Z AUTO 01001KT CAVOK 16/14 Q1016 RESHRA
EBLG - Liège
Aktualisierung: 17-08-2018 05:20
Regenschauer, Regen, Stark bewölkt  
Regenschauer, Regen, Stark bewölkt  
   Wind: NNW 9.3 km/h
Wind: NNW 9.3 km/h
Temperatur: 16°C
Taupunkt: 15°C
Luftfeuchte: 94%
Luftdruck: 1016 hPa
Bewölkt: Stark bewölkt
Sichtbarkeit: 5 km
Bewölkung: leicht bewölkt 900 ft,
Teilweise bewölkt 1400 ft,
Stark bewölkt 2900 ft
EBLG 170320Z 34005KT 280V010 5000 SHRA FEW009 SCT014CB BKN029 16/15 Q1016 RETS TEMPO 4000 TSRA BKN014CB
EBCV - Mons/Bergen
Aktualisierung: 17-08-2018 05:18
Bewölkt  
Bewölkt  
   Wind: variiert 1.9 km/h
Wind: variiert 1.9 km/h
Temperatur: 15°C
Taupunkt: 14°C
Luftfeuchte: 94%
Luftdruck: 1017 hPa
Bewölkt: Bewölkt
Sichtbarkeit: More than 10 km
Bewölkung: leicht bewölkt 1800 ft,
Bewölkt 7600 ft
EBCV 170318Z AUTO VRB01KT 9999 FEW018/// OVC076/// 15/14 Q1017 BLU
EHBK - Maastricht
Aktualisierung: 17-08-2018 05:25
Bewölkt  
Bewölkt  
   Wind: WNW 7.4 km/h
Wind: WNW 7.4 km/h
Temperatur: 17°C
Taupunkt: 16°C
Luftfeuchte: 94%
Luftdruck: 1016 hPa
Bewölkt: Bewölkt
Sichtbarkeit: More than 10 km
Bewölkung: Bewölkt 3400 ft
EHBK 170325Z AUTO 30004KT 230V030 9999 OVC034 17/16 Q1016
ELLX - Luxemburg
Aktualisierung: 17-08-2018 05:20
Klar  
Klar  
   Wind: Norden 18.5 km/h
Wind: Norden 18.5 km/h
Temperatur: 18°C
Taupunkt: 13°C
Luftfeuchte: 73%
Luftdruck: 1014 hPa
Sichtbarkeit: More than 10 km
Bewölkung: Klar
ELLX 170320Z 35010KT CAVOK 18/13 Q1014 NOSIG
EBOS - Oostende
Aktualisierung: 17-08-2018 05:20
Teilweise bewölkt  
Teilweise bewölkt  
   Wind: NW 14.8 km/h
Wind: NW 14.8 km/h
Temperatur: 17°C
Taupunkt: 13°C
Luftfeuchte: 77%
Luftdruck: 1017 hPa
Bewölkt: Teilweise bewölkt
Sichtbarkeit: More than 10 km
Bewölkung: Teilweise bewölkt 1500 ft
EBOS 170320Z 32008KT 9999 SCT015 17/13 Q1017 NOSIG

Script entwickelt von  Saratoga-weather.org Angepasst für das Template von  Weerstation Leuven

Sie finden unser Wetter-Infos auch auf:

netzwerkwettercom

European Weather Network

WeatherCloud

Weather Underground

AWEKAS

Citizen Weather Observer Program (CWOP)

HAMweather, WeatherForYou, PWS Weather

Von uns verwendete Ausrüstung:

Wetterstation
Davis VP2 Aktiv Plus 6163EU

Wetterprogramm
Weather Display

Davis VP2 Aktiv Plus  6163EU

Weather Display